Eviapetrol II — SY6858 — position and weather

sailwx.info

Track history (hours):
 
Tides and Currents Weather Stations Pressure Air Temp Water Temp Dewpoint Dewpoint Depression Visibility Wind Speed Wind Dir Waves Ship Positions

Eviapetrol II

Last reported at 2015-Apr-19 00:06 UTC. Time now 2015-Apr-19 04:37 UTC.
Position N 35°22' E 025°03'.

Length 78 m; draft 4.2 m.

Type: Tanker. MMSI: 240493000.

Date/timePositionNaut miles runAvg speedWind from/ knotsBaromVisibWave heightAir tempDewpointWater temp
2015-Apr-19 00:06N 35°22' E 025°03'16 9.0
2015-Apr-18 22:18N 35°38' E 024°60'7 9.6
2015-Apr-18 21:33N 35°45' E 024°58'10 9.3
2015-Apr-18 20:32N 35°54' E 024°55'9 8.8
2015-Apr-18 19:33N 36°02' E 024°53'9 8.6
2015-Apr-18 18:33N 36°11' E 024°51'9 8.7
2015-Apr-18 17:33N 36°19' E 024°49'12 8.7
2015-Apr-18 16:10N 36°31' E 024°46'6 8.4
2015-Apr-18 15:30N 36°37' E 024°45'62 8.4
2015-Apr-18 08:07N 37°27' E 023°59'8 8.8
2015-Apr-18 07:12N 37°32' E 023°51'6 9.1
2015-Apr-18 06:33N 37°34' E 023°44'9 9.3
2015-Apr-18 05:33N 37°37' E 023°33'9 9.4
2015-Apr-18 04:34N 37°40' E 023°22'9 8.9
2015-Apr-18 03:33N 37°46' E 023°14'10 9.8
2015-Apr-18 02:33N 37°54' E 023°06'3 0.2
2015-Apr-17 11:08N 37°55' E 023°10'710.1
2015-Apr-17 10:29N 37°56' E 023°18'8 8.2
2015-Apr-17 09:33N 37°60' E 023°27'5 4.8
2015-Apr-17 08:32N 38°02' E 023°33'0 0.0
2015-Apr-16 09:07N 38°02' E 023°32'0 0.0
2015-Apr-16 08:24N 38°02' E 023°32'0 0.0
2015-Apr-16 07:33N 38°02' E 023°32'5 5.1
2015-Apr-16 06:33N 37°57' E 023°35'6 6.3
2015-Apr-16 05:33N 37°52' E 023°39'1010.4
2015-Apr-16 04:33N 37°42' E 023°45'122 2.8
2015-Apr-14 09:32N 38°22' E 026°12'4110.2
2015-Apr-14 05:33N 37°45' E 026°32'77 2.6
2015-Apr-12 23:25N 36°32' E 027°02'4010.3
2015-Apr-12 19:31N 36°42' E 026°14'2110.2
2015-Apr-12 17:29N 36°44' E 025°48'1010.5
2015-Apr-12 16:33N 36°46' E 025°36'4410.4
2015-Apr-12 12:19N 37°03' E 024°45'4110.0
2015-Apr-12 08:14N 37°25' E 024°02'1810.6
2015-Apr-12 06:31N 37°38' E 023°46'1010.5
2015-Apr-12 05:33N 37°46' E 023°39'1010.2
2015-Apr-12 04:33N 37°56' E 023°36'6 0.2
2015-Apr-11 04:13N 38°02' E 023°33'2 3.1
2015-Apr-11 03:32N 38°02' E 023°36'0 0.0
2015-Apr-10 23:13N 38°02' E 023°36'0 0.0
2015-Apr-10 21:15N 38°02' E 023°36'0 0.0
2015-Apr-10 16:08N 38°02' E 023°36'0 0.0
2015-Apr-10 15:29N 38°02' E 023°36'0 0.2
2015-Apr-10 14:28N 38°02' E 023°36'5 5.0
2015-Apr-10 13:33N 38°00' E 023°30'8 7.6
2015-Apr-10 12:33N 37°56' E 023°22'1110.1
2015-Apr-10 11:27N 37°55' E 023°08'154 8.6
2015-Apr-09 17:32N 39°11' E 020°17'1010.1
2015-Apr-09 16:33N 39°20' E 020°13'1110.8
2015-Apr-09 15:33N 39°29' E 020°05'1110.8
2015-Apr-09 14:33N 39°38' E 019°57'5 4.6
2015-Apr-09 13:29N 39°39' E 019°51'0 0.0
2015-Apr-09 12:29N 39°39' E 019°51'0 0.0
2015-Apr-09 11:32N 39°39' E 019°51'0 0.0
2015-Apr-09 10:29N 39°39' E 019°51'0 0.0
2015-Apr-09 09:29N 39°39' E 019°51'0 0.0
2015-Apr-09 08:32N 39°39' E 019°51'0 0.0
2015-Apr-09 07:29N 39°39' E 019°51'0 0.0
2015-Apr-09 06:32N 39°39' E 019°51'0 0.0
2015-Apr-09 05:32N 39°39' E 019°51'1 0.9
2015-Apr-09 04:34N 39°40' E 019°52'1 1.4
2015-Apr-09 03:32N 39°38' E 019°53'0 0.0
2015-Apr-09 02:29N 39°38' E 019°53'0 0.0
2015-Apr-09 01:32N 39°38' E 019°53'0 0.0
2015-Apr-09 00:32N 39°38' E 019°53'  
Track history (hours):
 
Tides and Currents Weather Stations Pressure Air Temp Water Temp Dewpoint Dewpoint Depression Visibility Wind Speed Wind Dir Waves Ship Positions

Eviapetrol II

Last reported at 2015-Apr-19 00:06 UTC. Time now 2015-Apr-19 04:37 UTC.
Position N 35°22' E 025°03'.

Length 78 m; draft 4.2 m.

Type: Tanker. MMSI: 240493000.

Date/timePositionNaut miles runAvg speedWind from/ knotsBaromVisibWave heightAir tempDewpointWater temp
2015-Apr-19 00:06N 35°22' E 025°03'16 9.0
2015-Apr-18 22:18N 35°38' E 024°60'7 9.6
2015-Apr-18 21:33N 35°45' E 024°58'10 9.3
2015-Apr-18 20:32N 35°54' E 024°55'9 8.8
2015-Apr-18 19:33N 36°02' E 024°53'9 8.6
2015-Apr-18 18:33N 36°11' E 024°51'9 8.7
2015-Apr-18 17:33N 36°19' E 024°49'12 8.7
2015-Apr-18 16:10N 36°31' E 024°46'6 8.4
2015-Apr-18 15:30N 36°37' E 024°45'62 8.4
2015-Apr-18 08:07N 37°27' E 023°59'8 8.8
2015-Apr-18 07:12N 37°32' E 023°51'6 9.1
2015-Apr-18 06:33N 37°34' E 023°44'9 9.3
2015-Apr-18 05:33N 37°37' E 023°33'9 9.4
2015-Apr-18 04:34N 37°40' E 023°22'9 8.9
2015-Apr-18 03:33N 37°46' E 023°14'10 9.8
2015-Apr-18 02:33N 37°54' E 023°06'3 0.2
2015-Apr-17 11:08N 37°55' E 023°10'710.1
2015-Apr-17 10:29N 37°56' E 023°18'8 8.2
2015-Apr-17 09:33N 37°60' E 023°27'5 4.8
2015-Apr-17 08:32N 38°02' E 023°33'0 0.0
2015-Apr-16 09:07N 38°02' E 023°32'0 0.0
2015-Apr-16 08:24N 38°02' E 023°32'0 0.0
2015-Apr-16 07:33N 38°02' E 023°32'5 5.1
2015-Apr-16 06:33N 37°57' E 023°35'6 6.3
2015-Apr-16 05:33N 37°52' E 023°39'1010.4
2015-Apr-16 04:33N 37°42' E 023°45'122 2.8
2015-Apr-14 09:32N 38°22' E 026°12'4110.2
2015-Apr-14 05:33N 37°45' E 026°32'77 2.6
2015-Apr-12 23:25N 36°32' E 027°02'4010.3
2015-Apr-12 19:31N 36°42' E 026°14'2110.2
2015-Apr-12 17:29N 36°44' E 025°48'1010.5
2015-Apr-12 16:33N 36°46' E 025°36'4410.4
2015-Apr-12 12:19N 37°03' E 024°45'4110.0
2015-Apr-12 08:14N 37°25' E 024°02'1810.6
2015-Apr-12 06:31N 37°38' E 023°46'1010.5
2015-Apr-12 05:33N 37°46' E 023°39'1010.2
2015-Apr-12 04:33N 37°56' E 023°36'6 0.2
2015-Apr-11 04:13N 38°02' E 023°33'2 3.1
2015-Apr-11 03:32N 38°02' E 023°36'0 0.0
2015-Apr-10 23:13N 38°02' E 023°36'0 0.0
2015-Apr-10 21:15N 38°02' E 023°36'0 0.0
2015-Apr-10 16:08N 38°02' E 023°36'0 0.0
2015-Apr-10 15:29N 38°02' E 023°36'0 0.2
2015-Apr-10 14:28N 38°02' E 023°36'5 5.0
2015-Apr-10 13:33N 38°00' E 023°30'8 7.6
2015-Apr-10 12:33N 37°56' E 023°22'1110.1
2015-Apr-10 11:27N 37°55' E 023°08'154 8.6
2015-Apr-09 17:32N 39°11' E 020°17'1010.1
2015-Apr-09 16:33N 39°20' E 020°13'1110.8
2015-Apr-09 15:33N 39°29' E 020°05'1110.8
2015-Apr-09 14:33N 39°38' E 019°57'5 4.6
2015-Apr-09 13:29N 39°39' E 019°51'0 0.0
2015-Apr-09 12:29N 39°39' E 019°51'0 0.0
2015-Apr-09 11:32N 39°39' E 019°51'0 0.0
2015-Apr-09 10:29N 39°39' E 019°51'0 0.0
2015-Apr-09 09:29N 39°39' E 019°51'0 0.0
2015-Apr-09 08:32N 39°39' E 019°51'0 0.0
2015-Apr-09 07:29N 39°39' E 019°51'0 0.0
2015-Apr-09 06:32N 39°39' E 019°51'0 0.0
2015-Apr-09 05:32N 39°39' E 019°51'1 0.9
2015-Apr-09 04:34N 39°40' E 019°52'1 1.4
2015-Apr-09 03:32N 39°38' E 019°53'0 0.0
2015-Apr-09 02:29N 39°38' E 019°53'0 0.0
2015-Apr-09 01:32N 39°38' E 019°53'0 0.0
2015-Apr-09 00:32N 39°38' E 019°53'  

Dump ship's entire track history